Time;durP1;ratioP1;P1;durP2;ratioP2;P2;SDS_P1;SDS_P2;PMS_P1;PMS_P2;Temp;Humidity;BMP_temperature;BMP_pressure;BME280_temperature;BME280_humidity;BME280_pressure;Samples;Min_cycle;Max_cycle;Signal;HPM_P1;HPM_P2
2024/03/17 00:01:10;;;;;;;3.00;1.20;;;10.40;99.90;;;;;;4992812;28;20241;-63
2024/03/17 00:03:36;;;;;;;6.50;1.50;;;10.40;99.90;;;;;;4992480;28;20058;-63
2024/03/17 00:06:02;;;;;;;4.32;1.83;;;10.50;99.90;;;;;;5000845;28;20046;-63
2024/03/17 00:08:28;;;;;;;6.88;1.50;;;10.50;99.90;;;;;;4995772;28;20087;-63
2024/03/17 00:10:54;;;;;;;6.45;1.30;;;10.50;99.90;;;;;;4993597;28;20057;-63
2024/03/17 00:13:21;;;;;;;9.52;1.50;;;10.50;99.90;;;;;;4999016;28;20522;-63
2024/03/17 00:15:50;;;;;;;6.03;1.48;;;10.50;99.90;;;;;;5002103;28;20799;-63
2024/03/17 00:18:18;;;;;;;5.30;1.87;;;10.50;99.90;;;;;;5004826;28;20054;-63
2024/03/17 00:20:44;;;;;;;4.63;1.75;;;10.60;99.90;;;;;;4991146;28;20050;-63
2024/03/17 00:23:11;;;;;;;4.65;2.30;;;10.60;99.90;;;;;;4992490;28;20050;-63
2024/03/17 00:25:38;;;;;;;6.40;2.60;;;10.50;99.90;;;;;;4994883;28;20139;-63
2024/03/17 00:28:04;;;;;;;6.20;2.03;;;10.50;99.90;;;;;;4992919;28;20050;-63
2024/03/17 00:30:31;;;;;;;6.75;1.92;;;10.50;99.90;;;;;;4997610;28;20057;-64
2024/03/17 00:32:58;;;;;;;4.20;2.00;;;10.60;99.90;;;;;;4999698;28;20100;-64
2024/03/17 00:35:24;;;;;;;8.68;2.40;;;10.60;99.90;;;;;;4989960;28;20057;-64
2024/03/17 00:37:50;;;;;;;7.68;1.60;;;10.60;99.90;;;;;;4998329;28;20095;-64
2024/03/17 00:40:17;;;;;;;8.35;1.98;;;10.50;99.90;;;;;;4994240;28;20065;-63
2024/03/17 00:42:44;;;;;;;5.35;2.33;;;10.50;99.90;;;;;;4996773;28;20049;-63
2024/03/17 00:45:11;;;;;;;4.78;1.90;;;10.50;99.90;;;;;;4995832;28;20501;-63
2024/03/17 00:47:37;;;;;;;9.20;1.60;;;10.40;99.90;;;;;;4996496;28;20532;-63
2024/03/17 00:50:04;;;;;;;7.10;2.17;;;10.40;99.90;;;;;;4991710;28;20058;-64
2024/03/17 00:52:30;;;;;;;12.55;3.28;;;10.30;99.90;;;;;;4981882;28;20557;-63
2024/03/17 00:54:56;;;;;;;5.65;1.70;;;10.20;99.90;;;;;;4994212;28;20042;-63
2024/03/17 00:57:22;;;;;;;6.68;2.30;;;10.10;99.90;;;;;;4996441;28;20525;-63
2024/03/17 00:59:48;;;;;;;7.40;1.90;;;10.10;99.90;;;;;;4989346;28;20049;-63
2024/03/17 01:02:17;;;;;;;8.40;1.65;;;10.00;99.90;;;;;;4991019;28;20037;-63
2024/03/17 01:04:43;;;;;;;8.05;1.75;;;9.90;99.90;;;;;;4992766;28;20050;-63
2024/03/17 01:07:12;;;;;;;5.05;2.20;;;9.90;99.90;;;;;;4996077;28;20108;-64
2024/03/17 01:09:39;;;;;;;5.40;1.35;;;9.90;99.90;;;;;;4998849;28;20077;-63
2024/03/17 01:12:05;;;;;;;6.43;1.70;;;9.80;99.90;;;;;;4992124;28;20049;-63
2024/03/17 01:14:31;;;;;;;4.90;1.40;;;9.80;99.90;;;;;;4995033;28;20092;-64
2024/03/17 01:16:58;;;;;;;3.10;1.50;;;9.80;99.90;;;;;;4976595;28;20046;-63
2024/03/17 01:19:25;;;;;;;5.72;1.73;;;9.70;99.90;;;;;;4983505;28;20062;-63
2024/03/17 01:21:51;;;;;;;5.88;1.52;;;9.70;99.90;;;;;;4993218;28;20099;-63
2024/03/17 01:24:17;;;;;;;2.58;1.15;;;9.70;99.90;;;;;;4999532;28;20133;-63
2024/03/17 01:26:43;;;;;;;2.58;1.40;;;9.70;99.90;;;;;;4993141;28;20060;-64
2024/03/17 01:29:10;;;;;;;5.32;1.52;;;9.70;99.90;;;;;;4997058;28;20531;-63
2024/03/17 01:31:35;;;;;;;4.07;1.50;;;9.70;99.90;;;;;;5001244;28;20046;-62
2024/03/17 01:34:01;;;;;;;6.00;1.70;;;9.70;99.90;;;;;;5004508;28;20204;-63
2024/03/17 01:36:27;;;;;;;5.28;1.38;;;9.60;99.90;;;;;;4997853;28;20053;-63
2024/03/17 01:38:53;;;;;;;5.68;1.48;;;9.50;99.90;;;;;;5001611;28;20057;-63
2024/03/17 01:41:19;;;;;;;6.20;2.13;;;9.50;99.90;;;;;;4995148;28;20104;-63
2024/03/17 01:43:45;;;;;;;8.38;1.90;;;9.40;99.90;;;;;;4999786;28;20056;-63
2024/03/17 01:46:13;;;;;;;5.70;1.30;;;9.30;99.90;;;;;;4999210;28;20057;-63
2024/03/17 01:48:40;;;;;;;6.22;1.92;;;9.30;99.90;;;;;;4999631;28;20045;-63
2024/03/17 01:51:08;;;;;;;3.80;1.52;;;9.30;99.90;;;;;;4999650;28;20056;-63
2024/03/17 01:53:34;;;;;;;5.90;1.30;;;9.30;99.90;;;;;;5001849;28;20493;-63
2024/03/17 01:56:01;;;;;;;3.80;1.33;;;9.30;99.90;;;;;;4997950;28;20053;-64
2024/03/17 01:58:29;;;;;;;5.97;1.55;;;9.20;99.90;;;;;;4999536;28;20073;-63
2024/03/17 02:00:56;;;;;;;6.25;1.63;;;9.20;99.90;;;;;;5003716;28;20100;-62
2024/03/17 02:03:22;;;;;;;5.43;1.60;;;9.20;99.90;;;;;;4997043;28;20506;-62
2024/03/17 02:05:48;;;;;;;5.82;1.50;;;9.10;99.90;;;;;;5000717;28;20109;-63
2024/03/17 02:08:14;;;;;;;3.60;1.60;;;9.10;99.90;;;;;;4994115;28;20103;-63
2024/03/17 02:10:40;;;;;;;10.60;1.60;;;9.00;99.90;;;;;;4995331;28;20053;-63
2024/03/17 02:13:06;;;;;;;5.13;1.08;;;9.00;99.90;;;;;;4999404;28;20296;-63
2024/03/17 02:15:32;;;;;;;7.70;1.48;;;9.00;99.90;;;;;;4998782;28;20418;-63
2024/03/17 02:17:59;;;;;;;10.50;1.60;;;8.90;99.90;;;;;;5001031;28;20103;-63
2024/03/17 02:20:54;;;;;;;6.72;1.52;;;8.90;99.90;;;;;;5001179;28;20129;-63
2024/03/17 02:23:11;;;;;;;5.50;1.67;;;8.80;99.90;;;;;;4996609;28;20054;-63
2024/03/17 02:25:37;;;;;;;5.45;1.67;;;8.80;99.90;;;;;;4997540;28;20046;-63
2024/03/17 02:28:03;;;;;;;9.85;1.88;;;8.70;99.90;;;;;;4999502;28;20052;-63
2024/03/17 02:30:28;;;;;;;8.55;1.58;;;8.70;99.90;;;;;;5003569;28;20141;-63
2024/03/17 02:32:55;;;;;;;4.43;1.25;;;8.70;99.90;;;;;;5001191;28;20057;-63
2024/03/17 02:35:24;;;;;;;5.20;1.30;;;8.60;99.90;;;;;;4998682;28;20041;-62
2024/03/17 02:37:50;;;;;;;5.60;1.33;;;8.50;99.90;;;;;;4995341;28;20042;-63
2024/03/17 02:40:19;;;;;;;7.97;1.60;;;8.50;99.90;;;;;;4982728;28;20565;-63
2024/03/17 02:42:45;;;;;;;6.68;1.70;;;8.40;99.90;;;;;;4996930;28;20286;-63
2024/03/17 02:45:14;;;;;;;3.70;1.55;;;8.30;99.90;;;;;;4990486;28;20649;-63
2024/03/17 02:47:41;;;;;;;6.75;1.63;;;8.20;99.90;;;;;;4995176;28;20065;-63
2024/03/17 02:50:08;;;;;;;7.47;1.65;;;8.20;99.90;;;;;;4996631;28;20054;-63
2024/03/17 02:52:33;;;;;;;3.08;1.25;;;8.20;99.90;;;;;;5000655;28;20058;-63
2024/03/17 02:54:59;;;;;;;5.95;1.30;;;8.10;99.90;;;;;;4999916;28;20132;-63
2024/03/17 02:57:29;;;;;;;2.70;1.00;;;8.10;99.90;;;;;;4995210;28;20057;-63
2024/03/17 02:59:56;;;;;;;4.50;1.40;;;8.10;99.90;;;;;;4996356;28;20053;-63
2024/03/17 03:02:22;;;;;;;5.70;1.13;;;8.00;99.90;;;;;;4998776;28;20064;-63
2024/03/17 03:04:48;;;;;;;5.88;1.27;;;7.90;99.90;;;;;;4997746;28;20057;-63
2024/03/17 03:07:14;;;;;;;5.57;1.42;;;7.90;99.90;;;;;;4998069;28;20561;-63
2024/03/17 03:09:39;;;;;;;11.18;1.27;;;7.80;99.90;;;;;;4997199;28;20376;-63
2024/03/17 03:12:07;;;;;;;3.30;1.27;;;7.80;99.90;;;;;;4998402;28;20561;-63
2024/03/17 03:14:33;;;;;;;4.93;1.35;;;7.70;99.90;;;;;;4995128;28;20053;-63
2024/03/17 03:16:59;;;;;;;6.20;1.63;;;7.80;99.90;;;;;;4996355;28;20058;-63
2024/03/17 03:19:26;;;;;;;5.10;1.92;;;7.70;99.90;;;;;;4995937;28;21357;-63
2024/03/17 03:21:52;;;;;;;7.55;1.92;;;7.70;99.90;;;;;;4993798;28;20050;-63
2024/03/17 03:24:17;;;;;;;5.97;2.08;;;7.70;99.90;;;;;;5002168;28;20054;-63
2024/03/17 03:26:43;;;;;;;7.80;2.22;;;7.70;99.90;;;;;;4997821;28;20116;-63
2024/03/17 03:29:14;;;;;;;7.85;1.90;;;7.70;99.90;;;;;;4997648;28;20045;-63
2024/03/17 03:31:40;;;;;;;4.95;1.70;;;7.70;99.90;;;;;;4995775;28;20061;-63
2024/03/17 03:34:09;;;;;;;4.32;1.70;;;7.70;99.90;;;;;;4997808;28;20046;-64
2024/03/17 03:36:37;;;;;;;6.03;1.73;;;7.70;99.90;;;;;;4997114;28;20046;-64
2024/03/17 03:39:09;;;;;;;6.80;1.95;;;7.70;99.90;;;;;;4999716;28;20053;-63
2024/03/17 03:41:35;;;;;;;6.50;2.17;;;7.70;99.90;;;;;;4996788;28;20188;-62
2024/03/17 03:44:01;;;;;;;7.57;2.50;;;7.70;99.90;;;;;;4995135;28;20050;-63
2024/03/17 03:46:27;;;;;;;8.82;2.45;;;7.70;99.90;;;;;;4999746;28;20733;-63
2024/03/17 03:48:53;;;;;;;6.20;2.10;;;7.80;99.90;;;;;;4998759;28;20088;-63
2024/03/17 03:51:18;;;;;;;3.75;1.63;;;7.70;99.90;;;;;;4998842;28;20050;-63
2024/03/17 03:53:44;;;;;;;7.30;2.72;;;7.70;99.90;;;;;;4995424;28;20069;-63
2024/03/17 03:56:10;;;;;;;6.85;2.55;;;7.70;99.90;;;;;;4995692;28;20053;-63
2024/03/17 03:58:37;;;;;;;7.85;2.83;;;7.70;99.90;;;;;;4996739;28;20060;-63
2024/03/17 04:01:08;;;;;;;10.07;2.83;;;7.70;99.90;;;;;;4997756;28;20104;-64
2024/03/17 04:03:34;;;;;;;6.10;2.85;;;7.60;99.90;;;;;;4994259;28;20053;-64
2024/03/17 04:06:05;;;;;;;8.60;3.58;;;7.60;99.90;;;;;;4995259;28;20060;-63
2024/03/17 04:08:33;;;;;;;5.53;2.45;;;7.60;99.90;;;;;;4994882;28;20079;-63
2024/03/17 04:11:01;;;;;;;8.55;2.20;;;7.50;99.90;;;;;;4998235;28;20076;-63
2024/03/17 04:13:29;;;;;;;5.78;1.70;;;7.50;99.90;;;;;;5000163;28;20050;-63
2024/03/17 04:15:59;;;;;;;7.47;2.90;;;7.50;99.90;;;;;;4990412;28;20148;-62
2024/03/17 04:18:25;;;;;;;3.67;2.05;;;7.40;99.90;;;;;;5014971;28;20050;-64
2024/03/17 04:20:55;;;;;;;2.80;2.17;;;7.40;99.90;;;;;;4998674;28;20269;-63
2024/03/17 04:23:21;;;;;;;8.57;3.30;;;7.40;99.90;;;;;;4995964;28;20130;-63
2024/03/17 04:25:48;;;;;;;4.75;3.03;;;7.30;99.90;;;;;;4997684;28;20517;-63
2024/03/17 04:28:15;;;;;;;8.25;2.65;;;7.30;99.90;;;;;;4993549;28;20056;-63
2024/03/17 04:30:42;;;;;;;6.82;3.63;;;7.20;99.90;;;;;;4992504;28;20402;-63
2024/03/17 04:33:09;;;;;;;9.07;3.20;;;7.20;99.90;;;;;;5002106;28;20114;-63
2024/03/17 04:35:38;;;;;;;5.60;3.25;;;7.10;99.90;;;;;;4994642;28;20387;-63
2024/03/17 04:38:09;;;;;;;7.93;3.10;;;7.10;99.90;;;;;;4997459;28;20497;-63
2024/03/17 04:40:39;;;;;;;7.90;3.35;;;7.00;99.90;;;;;;4997426;28;20096;-62
2024/03/17 04:43:06;;;;;;;9.02;3.60;;;7.00;99.90;;;;;;4997440;28;20391;-63
2024/03/17 04:45:32;;;;;;;8.30;3.58;;;7.10;99.90;;;;;;4998027;28;20115;-63
2024/03/17 04:47:58;;;;;;;7.95;2.97;;;7.20;99.90;;;;;;4996560;28;20049;-63
2024/03/17 04:50:23;;;;;;;4.97;3.05;;;7.30;99.90;;;;;;4993390;28;20132;-63
2024/03/17 04:52:49;;;;;;;8.10;2.85;;;7.40;99.90;;;;;;4995400;28;20056;-63
2024/03/17 04:55:16;;;;;;;6.63;2.92;;;7.50;99.90;;;;;;4996582;28;20513;-63
2024/03/17 04:57:43;;;;;;;8.38;2.63;;;7.60;99.90;;;;;;5002954;28;20050;-63
2024/03/17 05:00:13;;;;;;;8.52;2.88;;;7.70;99.90;;;;;;4998882;28;20050;-64
2024/03/17 05:02:40;;;;;;;8.20;2.80;;;7.80;99.90;;;;;;5001329;28;20053;-63
2024/03/17 05:05:08;;;;;;;8.23;3.45;;;7.90;99.90;;;;;;4999596;28;20069;-63
2024/03/17 05:07:34;;;;;;;6.10;2.72;;;8.00;99.90;;;;;;4994864;28;20046;-63
2024/03/17 05:10:00;;;;;;;5.93;2.85;;;8.00;99.90;;;;;;5002940;28;20561;-64
2024/03/17 05:12:26;;;;;;;7.78;2.55;;;8.10;99.90;;;;;;4999777;28;20084;-63
2024/03/17 05:14:52;;;;;;;6.00;3.70;;;8.10;99.90;;;;;;4994877;28;20071;-63
2024/03/17 05:17:17;;;;;;;6.30;3.00;;;8.10;99.90;;;;;;4998864;28;20069;-62
2024/03/17 05:19:43;;;;;;;7.78;2.67;;;8.00;99.90;;;;;;4996257;28;20445;-63
2024/03/17 05:22:10;;;;;;;7.22;3.17;;;8.00;99.90;;;;;;4995827;28;20051;-63
2024/03/17 05:24:36;;;;;;;9.32;3.08;;;7.80;99.90;;;;;;4996246;28;20053;-63
2024/03/17 05:27:02;;;;;;;6.40;2.67;;;7.80;99.90;;;;;;4996447;28;20064;-63
2024/03/17 05:29:28;;;;;;;4.80;2.90;;;7.80;99.90;;;;;;4994857;28;20046;-63
2024/03/17 05:31:53;;;;;;;4.25;2.60;;;7.70;99.90;;;;;;5000934;28;20053;-63
2024/03/17 05:34:19;;;;;;;15.05;3.15;;;7.70;99.90;;;;;;4997169;28;20127;-64
2024/03/17 05:36:46;;;;;;;5.82;2.50;;;7.60;99.90;;;;;;4995073;28;20049;-63
2024/03/17 05:39:13;;;;;;;8.50;2.88;;;7.60;99.90;;;;;;5004169;28;20049;-63
2024/03/17 05:41:41;;;;;;;8.32;3.22;;;7.50;99.90;;;;;;4998580;28;20442;-63
2024/03/17 05:44:07;;;;;;;9.30;2.70;;;7.50;99.90;;;;;;5014834;28;20570;-63
2024/03/17 05:46:32;;;;;;;4.80;2.60;;;7.50;99.90;;;;;;4999727;28;20109;-63
2024/03/17 05:48:58;;;;;;;9.68;2.65;;;7.50;99.90;;;;;;4998604;28;20650;-64
2024/03/17 05:51:27;;;;;;;7.55;2.78;;;7.50;99.90;;;;;;5003195;28;20053;-64
2024/03/17 05:53:53;;;;;;;7.90;3.13;;;7.40;99.90;;;;;;5023610;28;20050;-63
2024/03/17 05:56:18;;;;;;;7.13;3.13;;;7.40;99.90;;;;;;4999086;28;20053;-63
2024/03/17 05:58:44;;;;;;;4.90;2.58;;;7.40;99.90;;;;;;5005738;28;20060;-63
2024/03/17 06:01:11;;;;;;;6.35;2.50;;;7.40;99.90;;;;;;4984677;28;20053;-63
2024/03/17 06:03:37;;;;;;;8.00;2.60;;;7.40;99.90;;;;;;4995594;28;20643;-64
2024/03/17 06:06:04;;;;;;;7.15;2.60;;;7.40;99.90;;;;;;5009077;28;20704;-63
2024/03/17 06:08:30;;;;;;;8.05;2.75;;;7.50;99.90;;;;;;4994837;28;20046;-63
2024/03/17 06:11:00;;;;;;;4.72;2.35;;;7.50;99.90;;;;;;5001063;28;20065;-64
2024/03/17 06:13:28;;;;;;;6.45;2.22;;;7.50;99.90;;;;;;5001018;28;20056;-65
2024/03/17 06:15:54;;;;;;;5.65;2.50;;;7.60;99.90;;;;;;4983626;28;20073;-64
2024/03/17 06:18:20;;;;;;;9.02;2.55;;;7.60;99.90;;;;;;4996491;28;20077;-64
2024/03/17 06:20:47;;;;;;;5.32;2.80;;;7.70;99.90;;;;;;4995034;28;20103;-64
2024/03/17 06:23:14;;;;;;;6.18;2.85;;;7.70;99.90;;;;;;4997041;28;20096;-64
2024/03/17 06:25:44;;;;;;;13.40;4.78;;;7.70;99.90;;;;;;4997648;28;20057;-65
2024/03/17 06:28:13;;;;;;;5.18;2.80;;;7.80;99.90;;;;;;4993166;28;20486;-64
2024/03/17 06:30:59;;;;;;;4.85;2.50;;;7.90;99.90;;;;;;5016028;23;20509;-65
2024/03/17 06:33:27;;;;;;;6.20;2.60;;;7.90;99.90;;;;;;5002937;28;20256;-65
2024/03/17 06:35:53;;;;;;;7.13;2.83;;;8.00;99.90;;;;;;5000172;28;20056;-65
2024/03/17 06:38:19;;;;;;;7.32;2.58;;;8.10;99.90;;;;;;4996552;28;20116;-65
2024/03/17 06:40:50;;;;;;;10.23;2.75;;;8.20;99.90;;;;;;5004516;28;20050;-65
2024/03/17 06:43:16;;;;;;;7.47;2.88;;;8.20;99.90;;;;;;5016940;28;20125;-65
2024/03/17 06:45:42;;;;;;;6.25;2.95;;;8.20;99.90;;;;;;5003995;28;20188;-65
2024/03/17 06:48:07;;;;;;;5.97;2.53;;;8.20;99.90;;;;;;5001266;28;20053;-65
2024/03/17 06:50:33;;;;;;;4.25;2.75;;;8.30;99.90;;;;;;4996644;28;20163;-65
2024/03/17 06:52:59;;;;;;;8.43;3.33;;;8.30;99.90;;;;;;5000754;28;20137;-65
2024/03/17 06:55:25;;;;;;;9.43;2.20;;;8.30;99.90;;;;;;4998359;28;20617;-65
2024/03/17 06:57:51;;;;;;;10.18;3.30;;;8.40;99.90;;;;;;5000499;28;20180;-65
2024/03/17 07:00:17;;;;;;;11.65;2.95;;;8.50;99.90;;;;;;4995640;28;20492;-65
2024/03/17 07:02:44;;;;;;;8.05;2.42;;;8.70;99.90;;;;;;5019476;28;20041;-65
2024/03/17 07:05:17;;;;;;;5.00;2.60;;;8.90;99.90;;;;;;4997420;28;20054;-65
2024/03/17 07:07:43;;;;;;;9.80;3.20;;;9.10;99.90;;;;;;5001065;28;20053;-65
2024/03/17 07:10:11;;;;;;;9.60;5.78;;;9.40;99.90;;;;;;4998165;28;20127;-65
2024/03/17 07:12:41;;;;;;;8.30;3.75;;;9.50;99.90;;;;;;4983923;28;20064;-65
2024/03/17 07:15:08;;;;;;;;;;;9.60;99.90;;;;;;5000187;28;20056;-65
2024/03/17 07:17:34;;;;;;;9.38;5.15;;;9.70;99.90;;;;;;5002163;28;19920;-65
2024/03/17 07:20:00;;;;;;;15.75;4.80;;;9.70;99.90;;;;;;5000421;28;20544;-65
2024/03/17 07:22:28;;;;;;;12.82;5.40;;;9.80;99.90;;;;;;4998741;28;20049;-65
2024/03/17 07:25:01;;;;;;;10.48;5.03;;;9.80;99.90;;;;;;5001074;28;20049;-65
2024/03/17 07:27:30;;;;;;;10.68;5.00;;;9.90;99.90;;;;;;4998546;28;20061;-65
2024/03/17 07:29:56;;;;;;;9.70;4.70;;;9.90;99.90;;;;;;5002633;28;20057;-65
2024/03/17 07:32:25;;;;;;;10.25;4.72;;;10.00;99.90;;;;;;4999640;28;20058;-65
2024/03/17 07:34:51;;;;;;;10.30;4.50;;;10.10;99.90;;;;;;5001023;28;20042;-65
2024/03/17 07:37:17;;;;;;;9.10;4.50;;;10.20;99.90;;;;;;4999191;28;20076;-65
2024/03/17 07:39:43;;;;;;;7.50;3.30;;;10.40;99.90;;;;;;4987160;28;20061;-65
2024/03/17 07:42:08;;;;;;;7.78;3.90;;;10.50;99.90;;;;;;5000893;28;20528;-65
2024/03/17 07:44:34;;;;;;;12.90;5.53;;;10.70;99.90;;;;;;5005115;28;20104;-65
2024/03/17 07:47:05;;;;;;;10.85;4.38;;;10.90;99.90;;;;;;4992955;28;20050;-65
2024/03/17 07:49:31;;;;;;;11.35;5.10;;;11.10;99.90;;;;;;4997128;28;20056;-65
2024/03/17 07:51:57;;;;;;;11.23;5.80;;;11.20;99.90;;;;;;4999112;28;20068;-65
2024/03/17 07:54:24;;;;;;;11.35;5.50;;;11.30;99.90;;;;;;5001675;28;20065;-65
2024/03/17 07:56:50;;;;;;;14.48;5.60;;;11.40;99.90;;;;;;5015961;28;20064;-65
2024/03/17 07:59:17;;;;;;;9.20;5.10;;;11.60;99.90;;;;;;5002497;28;20124;-65
2024/03/17 08:01:44;;;;;;;12.05;4.88;;;11.70;99.90;;;;;;4999191;28;20053;-65
2024/03/17 08:04:11;;;;;;;9.50;4.90;;;11.90;99.90;;;;;;4996402;28;20530;-65
2024/03/17 08:06:41;;;;;;;8.77;4.82;;;12.00;99.90;;;;;;4993056;28;20618;-66
2024/03/17 08:09:08;;;;;;;11.85;5.18;;;12.00;99.90;;;;;;4997199;28;20053;-65
2024/03/17 08:12:26;;;;;;;9.70;5.60;;;12.10;99.90;;;;;;4995024;28;20161;-64
2024/03/17 08:14:52;;;;;;;11.73;6.20;;;12.00;99.90;;;;;;5011647;28;20038;-64
2024/03/17 08:17:18;;;;;;;10.43;5.78;;;12.20;99.90;;;;;;5001632;28;20061;-64
2024/03/17 08:19:44;;;;;;;8.00;4.82;;;12.30;99.90;;;;;;5000810;28;20084;-64
2024/03/17 08:22:10;;;;;;;11.85;5.40;;;12.30;99.90;;;;;;4994911;28;20045;-64
2024/03/17 08:24:35;;;;;;;8.25;5.35;;;12.30;99.90;;;;;;5005588;28;20058;-63
2024/03/17 08:27:01;;;;;;;8.80;5.32;;;12.40;99.90;;;;;;4989208;28;20065;-64
2024/03/17 08:29:27;;;;;;;14.25;4.43;;;12.40;99.90;;;;;;5002622;28;20128;-64
2024/03/17 08:31:53;;;;;;;10.57;5.15;;;12.50;99.90;;;;;;4997750;28;20050;-64
2024/03/17 08:34:18;;;;;;;9.63;5.10;;;12.40;99.90;;;;;;5009272;28;20053;-64
2024/03/17 08:36:44;;;;;;;10.60;5.30;;;12.40;99.90;;;;;;5013817;28;20049;-63
2024/03/17 08:39:11;;;;;;;10.60;5.60;;;12.30;99.90;;;;;;5000339;28;20050;-64
2024/03/17 08:41:37;;;;;;;10.50;5.60;;;12.30;99.90;;;;;;4994438;28;20148;-64
2024/03/17 08:44:03;;;;;;;10.45;6.50;;;12.50;99.90;;;;;;5001594;28;20517;-63
2024/03/17 08:46:31;;;;;;;11.55;6.13;;;12.50;99.90;;;;;;5000353;28;20479;-64
2024/03/17 08:48:57;;;;;;;12.43;5.93;;;12.50;99.90;;;;;;4994383;28;20053;-63
2024/03/17 08:51:23;;;;;;;12.52;6.60;;;12.50;99.90;;;;;;5001705;28;20087;-64
2024/03/17 08:53:49;;;;;;;8.98;6.68;;;12.40;99.90;;;;;;4995112;28;20660;-64
2024/03/17 08:56:15;;;;;;;7.93;6.32;;;12.50;99.90;;;;;;4995617;28;20061;-64
2024/03/17 08:58:41;;;;;;;10.70;7.00;;;12.50;99.90;;;;;;4999389;28;20049;-64
2024/03/17 09:01:07;;;;;;;13.55;6.53;;;12.50;99.90;;;;;;4994708;28;20494;-64
2024/03/17 09:03:36;;;;;;;11.00;6.75;;;12.50;99.90;;;;;;4996326;28;20049;-64
2024/03/17 09:06:02;;;;;;;9.90;5.57;;;12.50;99.90;;;;;;5000804;28;20111;-63
2024/03/17 09:08:28;;;;;;;12.93;5.85;;;12.50;99.90;;;;;;5002547;28;20046;-64
2024/03/17 09:10:54;;;;;;;14.30;6.88;;;12.50;99.90;;;;;;4996649;28;20073;-64
2024/03/17 09:13:25;;;;;;;9.13;6.20;;;12.60;99.90;;;;;;5005648;28;20049;-64
2024/03/17 09:15:56;;;;;;;14.48;7.15;;;12.50;99.90;;;;;;5001269;28;20525;-64
2024/03/17 09:18:23;;;;;;;11.75;6.50;;;12.50;99.90;;;;;;5003679;28;20484;-64
2024/03/17 09:20:59;;;;;;;10.32;6.10;;;12.40;99.90;;;;;;4996825;28;20068;-64
2024/03/17 09:23:26;;;;;;;8.30;5.93;;;12.40;99.90;;;;;;5003200;28;20050;-64
2024/03/17 09:26:17;;;;;;;12.68;6.20;;;12.50;99.90;;;;;;5007627;28;20069;-64
2024/03/17 09:28:46;;;;;;;9.40;6.47;;;12.60;99.90;;;;;;4995208;28;20057;-64
2024/03/17 09:31:12;;;;;;;9.13;6.00;;;12.70;99.90;;;;;;4997189;28;20042;-64
2024/03/17 09:33:38;;;;;;;10.98;6.38;;;12.60;99.90;;;;;;5000127;28;20061;-64
2024/03/17 09:36:07;;;;;;;11.63;7.22;;;12.70;99.90;;;;;;4999456;28;20490;-64
2024/03/17 09:38:34;;;;;;;13.25;7.30;;;12.70;99.90;;;;;;5001216;28;20053;-64
2024/03/17 09:41:01;;;;;;;14.23;8.80;;;12.80;99.90;;;;;;4996415;28;20087;-64
2024/03/17 09:43:28;;;;;;;10.43;7.18;;;12.70;99.90;;;;;;5024484;28;20064;-64
2024/03/17 09:45:57;;;;;;;8.55;6.05;;;12.80;99.90;;;;;;5005009;28;20057;-64
2024/03/17 09:48:30;;;;;;;10.87;7.07;;;12.90;99.90;;;;;;5004450;28;20417;-64
2024/03/17 09:51:00;;;;;;;11.55;6.93;;;12.90;99.90;;;;;;5001516;28;20410;-63
2024/03/17 09:53:32;;;;;;;13.10;6.85;;;12.90;99.90;;;;;;5005048;28;20529;-64
2024/03/17 09:56:10;;;;;;;15.68;7.65;;;13.00;99.90;;;;;;5002018;28;20530;-64
2024/03/17 09:58:36;;;;;;;12.45;7.55;;;13.00;99.90;;;;;;4993562;28;20418;-64
2024/03/17 10:01:03;;;;;;;13.40;7.43;;;12.90;99.90;;;;;;4997015;28;20047;-64
2024/03/17 10:03:51;;;;;;;11.52;7.35;;;12.90;99.90;;;;;;5004840;28;20056;-64
2024/03/17 10:06:19;;;;;;;12.25;8.32;;;12.90;99.90;;;;;;5014137;28;20418;-64
2024/03/17 10:08:53;;;;;;;9.85;7.03;;;12.90;99.90;;;;;;4997610;28;20065;-64
2024/03/17 10:11:34;;;;;;;12.07;8.27;;;12.90;99.90;;;;;;5007775;28;20417;-63
2024/03/17 10:14:04;;;;;;;14.07;7.50;;;12.90;99.90;;;;;;5007683;28;20127;-64
2024/03/17 10:16:32;;;;;;;11.55;7.07;;;12.90;99.90;;;;;;5002505;28;20426;-64
2024/03/17 10:19:16;;;;;;;13.45;7.63;;;12.80;99.90;;;;;;5004392;28;20156;-64
2024/03/17 10:21:49;;;;;;;13.00;7.85;;;12.90;99.90;;;;;;5024432;28;20050;-64
2024/03/17 10:24:28;;;;;;;13.73;7.65;;;13.00;99.90;;;;;;5001156;28;20085;-64
2024/03/17 10:26:55;;;;;;;11.43;7.15;;;12.90;99.90;;;;;;5005400;28;20418;-64
2024/03/17 10:29:24;;;;;;;12.50;8.57;;;12.90;99.90;;;;;;5006815;28;20525;-64
2024/03/17 10:31:55;;;;;;;9.68;7.35;;;13.00;99.90;;;;;;5002514;28;20659;-64
2024/03/17 10:34:25;;;;;;;11.05;7.50;;;13.10;99.90;;;;;;4997861;28;20073;-64
2024/03/17 10:37:04;;;;;;;10.50;7.78;;;13.20;99.90;;;;;;5005846;28;20049;-64
2024/03/17 10:39:30;;;;;;;15.52;7.82;;;13.30;99.90;;;;;;4997461;28;20045;-64
2024/03/17 10:41:59;;;;;;;12.07;7.97;;;13.30;99.90;;;;;;5002059;28;20049;-64
2024/03/17 10:44:26;;;;;;;15.15;8.32;;;13.30;99.90;;;;;;4995950;28;20059;-64
2024/03/17 10:46:54;;;;;;;14.02;8.15;;;13.30;99.90;;;;;;5000324;28;20489;-64
2024/03/17 10:49:21;;;;;;;12.00;8.18;;;13.40;99.90;;;;;;5003852;28;20053;-64
2024/03/17 10:51:52;;;;;;;13.00;7.78;;;13.50;99.90;;;;;;5003658;28;20056;-64
2024/03/17 10:54:26;;;;;;;16.83;7.70;;;13.60;99.90;;;;;;4996881;28;20068;-64
2024/03/17 10:56:54;;;;;;;11.10;8.00;;;13.70;99.90;;;;;;4998939;28;20084;-64
2024/03/17 10:59:32;;;;;;;13.80;7.75;;;13.80;99.90;;;;;;4999366;28;20101;-64
2024/03/17 11:02:02;;;;;;;10.43;7.38;;;13.90;99.90;;;;;;5005395;28;20504;-64
2024/03/17 11:04:28;;;;;;;11.07;8.10;;;13.80;99.90;;;;;;5001237;28;20057;-64
2024/03/17 11:06:58;;;;;;;8.25;7.05;;;14.00;99.90;;;;;;5001212;28;20090;-64
2024/03/17 11:09:24;;;;;;;17.48;7.90;;;14.20;99.90;;;;;;4997851;28;20507;-64
2024/03/17 11:11:51;;;;;;;12.27;7.53;;;14.40;99.90;;;;;;5000429;28;20061;-64
2024/03/17 11:14:20;;;;;;;9.40;6.95;;;14.50;99.90;;;;;;4995997;28;20461;-64
2024/03/17 11:16:47;;;;;;;11.43;7.82;;;14.60;99.90;;;;;;5004493;28;20054;-64
2024/03/17 11:19:17;;;;;;;13.40;7.47;;;14.70;99.90;;;;;;5001068;28;20053;-64
2024/03/17 11:21:43;;;;;;;11.73;7.63;;;14.70;99.90;;;;;;4998796;28;20049;-64
2024/03/17 11:24:21;;;;;;;10.60;7.05;;;14.60;99.90;;;;;;4997864;28;20630;-64
2024/03/17 11:26:47;;;;;;;10.68;7.07;;;14.60;99.90;;;;;;4997218;28;20054;-64
2024/03/17 11:29:29;;;;;;;10.90;7.72;;;14.40;99.90;;;;;;5000216;28;20094;-64
2024/03/17 11:31:55;;;;;;;10.80;7.18;;;14.40;99.90;;;;;;4997849;28;20061;-64
2024/03/17 11:34:36;;;;;;;9.30;6.60;;;14.50;99.90;;;;;;5007585;28;20049;-64
2024/03/17 11:37:08;;;;;;;;;;;14.60;99.90;;;;;;5004430;28;20072;-64
2024/03/17 11:39:57;;;;;;;11.77;6.40;;;14.50;99.90;;;;;;4993162;28;20390;-64
2024/03/17 11:42:25;;;;;;;11.25;6.78;;;14.60;99.90;;;;;;5000720;28;20529;-64
2024/03/17 11:45:21;;;;;;;13.75;7.43;;;14.80;99.90;;;;;;5000568;28;20108;-64
2024/03/17 11:47:48;;;;;;;9.05;6.75;;;14.90;99.90;;;;;;4993465;28;20128;-64
2024/03/17 11:50:15;;;;;;;11.93;7.22;;;14.80;99.90;;;;;;4991426;28;20089;-64
2024/03/17 11:52:44;;;;;;;10.85;6.90;;;14.90;99.90;;;;;;4993900;28;20050;-64
2024/03/17 11:55:17;;;;;;;8.98;6.28;;;15.10;99.90;;;;;;4996319;28;20056;-64
2024/03/17 11:57:45;;;;;;;10.43;6.60;;;15.20;99.90;;;;;;5015719;28;20056;-64
2024/03/17 12:00:23;;;;;;;11.45;6.68;;;15.40;99.90;;;;;;5005906;28;20052;-64
2024/03/17 12:02:49;;;;;;;10.02;6.45;;;15.40;99.90;;;;;;4999599;28;20069;-64
2024/03/17 12:05:15;;;;;;;13.20;7.35;;;15.30;99.90;;;;;;4999101;28;20113;-64
2024/03/17 12:07:44;;;;;;;12.52;6.82;;;15.30;99.90;;;;;;4998133;28;20107;-64
2024/03/17 12:10:13;;;;;;;12.20;6.68;;;15.30;99.90;;;;;;4991177;28;20049;-64
2024/03/17 12:12:39;;;;;;;11.15;7.30;;;15.20;99.90;;;;;;4997142;28;20049;-64
2024/03/17 12:15:19;;;;;;;13.55;7.25;;;15.10;99.90;;;;;;4996342;28;21344;-64
2024/03/17 12:17:45;;;;;;;;;;;14.90;99.90;;;;;;5000677;28;20426;-64
2024/03/17 12:20:22;;;;;;;11.38;7.30;;;15.10;99.90;;;;;;4995201;28;19921;-64
2024/03/17 12:22:48;;;;;;;12.32;7.10;;;15.00;99.90;;;;;;4997163;28;20058;-64
2024/03/17 12:25:17;;;;;;;10.40;7.43;;;14.70;99.90;;;;;;4996894;28;20065;-64
2024/03/17 12:27:46;;;;;;;13.55;7.85;;;14.20;99.90;;;;;;5000748;28;20053;-64
2024/03/17 12:30:12;;;;;;;12.73;7.70;;;14.00;99.90;;;;;;5018161;28;20050;-65
2024/03/17 12:32:38;;;;;;;12.10;8.00;;;13.70;99.90;;;;;;5002838;28;20448;-65
2024/03/17 12:35:13;;;;;;;9.35;7.05;;;13.60;99.90;;;;;;5000775;28;20045;-65
2024/03/17 12:37:40;;;;;;;10.85;7.68;;;13.70;99.90;;;;;;4991301;28;21479;-65
2024/03/17 12:40:18;;;;;;;11.10;7.38;;;13.80;99.90;;;;;;5001991;28;20065;-64
2024/03/17 12:42:49;;;;;;;11.07;7.90;;;14.00;99.90;;;;;;4998417;28;20417;-63
2024/03/17 12:45:19;;;;;;;11.70;7.60;;;13.70;99.90;;;;;;5003531;28;20068;-63
2024/03/17 12:47:48;;;;;;;12.80;7.82;;;13.50;99.90;;;;;;5014434;28;20065;-63
2024/03/17 12:50:17;;;;;;;13.85;8.40;;;13.30;99.90;;;;;;5000005;28;20046;-63
2024/03/17 12:52:53;;;;;;;11.55;8.20;;;13.20;99.90;;;;;;5000255;28;20054;-63